createdAt,value
2022-08-26T00:03:15.511Z,3.63
2022-08-26T00:11:37.871Z,3.53
2022-08-26T00:15:41.329Z,3.72
2022-08-26T00:19:44.208Z,3.58
2022-08-26T00:23:47.517Z,3.97
2022-08-26T00:27:51.844Z,4.20
2022-08-26T00:31:55.328Z,3.85
2022-08-26T00:36:00.190Z,4.22
2022-08-26T00:40:06.863Z,4.00
2022-08-26T00:44:11.184Z,4.00
2022-08-26T00:48:18.228Z,4.03
2022-08-26T00:52:23.234Z,3.83
2022-08-26T00:56:59.925Z,4.53
2022-08-26T01:01:04.320Z,3.92
2022-08-26T01:05:09.444Z,4.15
2022-08-26T01:09:13.244Z,4.68
2022-08-26T01:13:16.545Z,4.10
2022-08-26T01:17:22.933Z,4.28
2022-08-26T01:21:31.317Z,4.50
2022-08-26T01:25:39.246Z,4.53
2022-08-26T01:29:45.365Z,4.40
2022-08-26T01:33:55.393Z,4.57
2022-08-26T01:42:21.355Z,5.10
2022-08-26T01:46:33.339Z,4.80
2022-08-26T01:50:37.290Z,4.57
2022-08-26T01:54:41.492Z,4.95
2022-08-26T01:58:59.133Z,6.35
2022-08-26T02:03:17.082Z,5.40
2022-08-26T02:07:21.717Z,5.35
2022-08-26T02:11:25.537Z,5.85
2022-08-26T02:15:29.008Z,5.72
2022-08-26T02:19:34.558Z,5.78
2022-08-26T02:23:38.686Z,5.97
2022-08-26T02:27:42.370Z,5.80
2022-08-26T02:31:45.597Z,5.13
2022-08-26T02:35:48.499Z,6.13
2022-08-26T02:39:52.363Z,5.30
2022-08-26T02:43:56.123Z,5.47
2022-08-26T02:48:02.719Z,5.60
2022-08-26T02:56:09.200Z,4.57
2022-08-26T03:00:15.229Z,5.22
2022-08-26T03:04:18.252Z,5.20
2022-08-26T03:08:22.264Z,4.85
2022-08-26T03:12:25.711Z,4.95
2022-08-26T03:16:33.180Z,4.90
2022-08-26T03:20:36.120Z,5.13
2022-08-26T03:24:38.933Z,4.90
2022-08-26T03:29:01.711Z,5.20
2022-08-26T03:33:06.310Z,5.05
2022-08-26T03:37:09.587Z,4.78
2022-08-26T03:41:13.402Z,4.97
2022-08-26T03:49:36.854Z,5.35
2022-08-26T03:53:39.769Z,5.25
2022-08-26T03:57:42.925Z,5.43
2022-08-26T04:01:46.054Z,5.30
2022-08-26T04:05:52.259Z,5.68
2022-08-26T04:14:22.575Z,5.97
2022-08-26T04:18:33.005Z,5.95
2022-08-26T04:22:42.418Z,5.50
2022-08-26T04:26:45.730Z,5.60
2022-08-26T04:30:49.720Z,5.43
2022-08-26T04:34:53.828Z,5.25
2022-08-26T04:38:57.153Z,6.03
2022-08-26T04:43:00.755Z,5.47
2022-08-26T04:47:04.885Z,5.65
2022-08-26T04:51:08.536Z,6.00
2022-08-26T04:55:12.634Z,6.47
2022-08-26T04:59:18.137Z,6.75
2022-08-26T05:03:21.852Z,5.60
2022-08-26T05:07:24.746Z,6.10
2022-08-26T05:11:27.856Z,6.25
2022-08-26T05:15:31.531Z,6.05
2022-08-26T05:23:53.151Z,6.47
2022-08-26T05:27:56.726Z,6.82
2022-08-26T05:32:01.492Z,7.38
2022-08-26T05:36:15.590Z,6.45
2022-08-26T05:44:53.846Z,7.22
2022-08-26T05:48:59.652Z,7.55
2022-08-26T05:53:03.038Z,8.50
2022-08-26T05:57:08.076Z,10.85
2022-08-26T06:05:41.858Z,8.90
2022-08-26T06:09:46.172Z,7.82
2022-08-26T06:18:05.863Z,9.00
2022-08-26T06:22:29.101Z,7.22
2022-08-26T06:26:34.183Z,8.05
2022-08-26T06:35:05.912Z,7.07
2022-08-26T06:39:18.384Z,6.80
2022-08-26T06:43:25.798Z,6.00
2022-08-26T06:47:37.221Z,5.95
2022-08-26T06:51:41.271Z,6.05
2022-08-26T06:55:48.726Z,5.55
2022-08-26T06:59:54.907Z,7.25
2022-08-26T07:12:38.040Z,7.15
2022-08-26T07:21:02.404Z,5.32
2022-08-26T07:30:10.980Z,5.28
2022-08-26T08:04:51.919Z,4.45
2022-08-26T08:13:14.771Z,4.38
2022-08-26T08:17:18.067Z,4.43
2022-08-26T09:14:57.232Z,4.55
2022-08-26T09:19:26.371Z,4.15
2022-08-26T09:32:25.374Z,3.92
2022-08-26T09:36:41.526Z,4.05
2022-08-26T09:40:59.431Z,4.18
2022-08-26T09:53:59.138Z,3.85
2022-08-26T09:58:07.714Z,4.15
2022-08-26T10:02:33.916Z,4.30
2022-08-26T10:06:42.011Z,3.80
2022-08-26T10:10:45.686Z,3.97
2022-08-26T10:15:03.574Z,3.90
2022-08-26T10:19:12.203Z,3.17
2022-08-26T10:23:20.670Z,3.45
2022-08-26T10:27:53.549Z,3.95
2022-08-26T10:32:02.659Z,3.38
2022-08-26T10:36:39.271Z,3.45
2022-08-26T10:40:50.575Z,3.40
2022-08-26T10:44:58.826Z,3.25
2022-08-26T10:49:14.166Z,3.70
2022-08-26T10:53:51.570Z,3.30
2022-08-26T10:58:42.731Z,3.33
2022-08-26T11:02:52.602Z,3.72
2022-08-26T11:07:33.390Z,3.95
2022-08-26T11:11:42.245Z,3.80
2022-08-26T11:15:54.053Z,2.90
2022-08-26T11:20:02.185Z,3.20
2022-08-26T11:24:06.198Z,3.60
2022-08-26T11:28:09.836Z,3.67
2022-08-26T11:32:50.924Z,3.30
2022-08-26T11:36:59.398Z,3.50
2022-08-26T11:41:22.068Z,3.55
2022-08-26T11:50:18.378Z,3.58
2022-08-26T11:54:30.697Z,3.75
2022-08-26T12:03:05.729Z,3.20
2022-08-26T12:07:09.388Z,3.08
2022-08-26T12:11:23.302Z,3.63
2022-08-26T12:15:29.536Z,3.38
2022-08-26T12:19:35.235Z,3.45
2022-08-26T12:23:46.735Z,3.60
2022-08-26T12:27:53.644Z,3.22
2022-08-26T12:32:13.851Z,3.10
2022-08-26T12:36:37.151Z,3.55
2022-08-26T12:40:46.030Z,3.30
2022-08-26T12:44:59.117Z,2.97
2022-08-26T12:49:03.430Z,3.10
2022-08-26T12:53:27.989Z,2.88
2022-08-26T12:57:37.271Z,3.03
2022-08-26T13:01:44.084Z,3.20
2022-08-26T13:05:47.365Z,3.13
2022-08-26T13:09:53.226Z,2.70
2022-08-26T13:14:06.844Z,2.88
2022-08-26T13:18:10.111Z,2.67
2022-08-26T13:22:14.746Z,2.38
2022-08-26T13:26:18.628Z,2.90
2022-08-26T13:30:21.700Z,2.28
2022-08-26T13:34:25.887Z,2.75
2022-08-26T13:38:33.577Z,2.63
2022-08-26T13:42:37.428Z,2.95
2022-08-26T13:51:11.212Z,2.90
2022-08-26T13:55:14.054Z,2.85
2022-08-26T13:59:17.722Z,2.90
2022-08-26T14:03:23.428Z,2.38
2022-08-26T14:07:26.634Z,2.90
2022-08-26T14:15:48.071Z,3.08
2022-08-26T14:19:55.575Z,2.70
2022-08-26T14:28:19.600Z,2.58
2022-08-26T14:32:29.206Z,2.75
2022-08-26T14:36:35.254Z,2.60
2022-08-26T14:40:48.753Z,2.30
2022-08-26T14:44:58.583Z,2.83
2022-08-26T14:49:06.211Z,2.60
2022-08-26T14:53:38.342Z,2.50
2022-08-26T14:57:55.727Z,2.72
2022-08-26T15:01:58.895Z,3.00
2022-08-26T15:06:01.937Z,2.55
2022-08-26T15:10:07.243Z,2.75
2022-08-26T15:14:19.688Z,2.43
2022-08-26T15:18:23.676Z,2.90
2022-08-26T15:22:29.911Z,2.65
2022-08-26T15:26:33.821Z,2.90
2022-08-26T15:30:37.437Z,2.42
2022-08-26T15:34:40.247Z,2.60
2022-08-26T15:38:43.103Z,2.75
2022-08-26T15:42:46.236Z,2.80
2022-08-26T15:46:58.807Z,2.90
2022-08-26T15:51:03.497Z,3.20
2022-08-26T15:55:08.610Z,2.92
2022-08-26T15:59:12.130Z,3.40
2022-08-26T16:03:15.115Z,2.78
2022-08-26T16:07:18.530Z,2.88
2022-08-26T16:11:22.278Z,2.97
2022-08-26T16:15:24.993Z,3.17
2022-08-26T16:19:27.796Z,2.75
2022-08-26T16:23:30.737Z,2.80
2022-08-26T16:27:38.088Z,3.25
2022-08-26T16:31:42.754Z,3.20
2022-08-26T16:35:46.031Z,3.08
2022-08-26T16:39:48.965Z,3.17
2022-08-26T16:43:52.391Z,2.78
2022-08-26T16:52:12.486Z,2.83
2022-08-26T16:56:21.991Z,3.08
2022-08-26T17:21:59.036Z,3.30
2022-08-26T17:26:02.614Z,3.13
2022-08-26T17:30:06.458Z,3.00
2022-08-26T17:38:28.377Z,3.15
2022-08-26T18:09:03.578Z,3.38
2022-08-26T18:13:07.594Z,3.47
2022-08-26T20:36:49.574Z,4.38
2022-08-26T20:40:52.503Z,4.43
2022-08-26T20:44:59.228Z,4.53
2022-08-26T20:49:07.467Z,5.30
2022-08-26T20:53:12.852Z,5.28
2022-08-26T22:01:43.793Z,5.80
2022-08-26T22:05:55.626Z,5.10
2022-08-26T22:48:43.459Z,5.68
2022-08-26T23:09:55.699Z,5.90
2022-08-26T23:18:15.610Z,6.38
2022-08-26T23:31:12.793Z,6.72
2022-08-26T23:39:33.961Z,6.20
2022-08-26T23:52:31.211Z,6.47
